sensor_id;sensor_type;location;lat;lon;timestamp;pressure;altitude;pressure_sealevel;temperature;humidity
63739;BME280;68816;45.558;10.070;2023-05-01T00:02:19;99799.22;;;18.08;54.92
63739;BME280;68816;45.558;10.070;2023-05-01T00:04:45;99797.47;;;18.17;54.50
63739;BME280;68816;45.558;10.070;2023-05-01T00:07:11;99798.63;;;18.16;55.60
63739;BME280;68816;45.558;10.070;2023-05-01T00:09:36;99800.63;;;18.11;55.38
63739;BME280;68816;45.558;10.070;2023-05-01T00:12:02;99797.88;;;18.00;55.35
63739;BME280;68816;45.558;10.070;2023-05-01T00:14:28;99793.66;;;18.03;55.28
63739;BME280;68816;45.558;10.070;2023-05-01T00:16:55;99795.31;;;18.09;56.04
63739;BME280;68816;45.558;10.070;2023-05-01T00:19:20;99791.91;;;18.12;54.79
63739;BME280;68816;45.558;10.070;2023-05-01T00:21:46;99781.03;;;18.11;54.73
63739;BME280;68816;45.558;10.070;2023-05-01T00:24:13;99788.59;;;18.10;54.91
63739;BME280;68816;45.558;10.070;2023-05-01T00:26:39;99789.47;;;18.00;55.53
63739;BME280;68816;45.558;10.070;2023-05-01T00:29:04;99792.00;;;18.02;55.03
63739;BME280;68816;45.558;10.070;2023-05-01T00:31:30;99788.16;;;17.93;55.98
63739;BME280;68816;45.558;10.070;2023-05-01T00:33:55;99779.69;;;18.03;54.67
63739;BME280;68816;45.558;10.070;2023-05-01T00:36:21;99783.50;;;18.12;54.46
63739;BME280;68816;45.558;10.070;2023-05-01T00:38:46;99783.56;;;18.07;56.10
63739;BME280;68816;45.558;10.070;2023-05-01T00:41:12;99781.88;;;18.06;55.92
63739;BME280;68816;45.558;10.070;2023-05-01T00:43:37;99787.56;;;17.96;55.91
63739;BME280;68816;45.558;10.070;2023-05-01T00:46:03;99783.56;;;18.07;56.15
63739;BME280;68816;45.558;10.070;2023-05-01T00:48:28;99779.16;;;17.96;57.24
63739;BME280;68816;45.558;10.070;2023-05-01T00:50:55;99787.84;;;17.99;56.69
63739;BME280;68816;45.558;10.070;2023-05-01T00:53:22;99774.31;;;18.06;56.02
63739;BME280;68816;45.558;10.070;2023-05-01T00:55:50;99771.84;;;18.00;55.26
63739;BME280;68816;45.558;10.070;2023-05-01T00:58:16;99767.94;;;18.01;56.22
63739;BME280;68816;45.558;10.070;2023-05-01T01:00:43;99769.91;;;18.00;56.00
63739;BME280;68816;45.558;10.070;2023-05-01T01:03:09;99768.81;;;17.96;55.37
63739;BME280;68816;45.558;10.070;2023-05-01T01:05:42;99772.44;;;17.97;56.05
63739;BME280;68816;45.558;10.070;2023-05-01T01:08:29;99774.13;;;17.98;56.07
63739;BME280;68816;45.558;10.070;2023-05-01T01:13:54;99768.53;;;17.98;54.60
63739;BME280;68816;45.558;10.070;2023-05-01T01:17:12;99757.34;;;17.98;54.92
63739;BME280;68816;45.558;10.070;2023-05-01T01:22:39;99756.22;;;17.99;54.17
63739;BME280;68816;45.558;10.070;2023-05-01T01:25:46;99759.31;;;17.97;54.64
63739;BME280;68816;45.558;10.070;2023-05-01T01:28:28;99756.00;;;17.90;54.79
63739;BME280;68816;45.558;10.070;2023-05-01T01:31:19;99755.16;;;17.90;54.56
63739;BME280;68816;45.558;10.070;2023-05-01T01:34:00;99763.81;;;17.88;55.30
63739;BME280;68816;45.558;10.070;2023-05-01T01:36:42;99755.66;;;17.97;54.16
63739;BME280;68816;45.558;10.070;2023-05-01T01:39:29;99762.97;;;17.93;54.84
63739;BME280;68816;45.558;10.070;2023-05-01T01:41:58;99756.81;;;17.91;54.61
63739;BME280;68816;45.558;10.070;2023-05-01T01:44:50;99759.63;;;17.91;54.18
63739;BME280;68816;45.558;10.070;2023-05-01T01:47:18;99755.38;;;17.98;52.89
63739;BME280;68816;45.558;10.070;2023-05-01T01:49:48;99755.09;;;17.95;53.85
63739;BME280;68816;45.558;10.070;2023-05-01T01:52:15;99754.50;;;18.03;53.71
63739;BME280;68816;45.558;10.070;2023-05-01T01:54:45;99760.13;;;17.98;54.44
63739;BME280;68816;45.558;10.070;2023-05-01T01:57:15;99759.25;;;18.02;54.67
63739;BME280;68816;45.558;10.070;2023-05-01T01:59:42;99759.25;;;18.02;54.49
63739;BME280;68816;45.558;10.070;2023-05-01T02:02:09;99760.94;;;18.03;55.90
63739;BME280;68816;45.558;10.070;2023-05-01T02:04:37;99761.59;;;17.90;54.89
63739;BME280;68816;45.558;10.070;2023-05-01T02:07:05;99761.06;;;17.83;55.64
63739;BME280;68816;45.558;10.070;2023-05-01T02:09:31;99770.59;;;17.82;55.71
63739;BME280;68816;45.558;10.070;2023-05-01T02:11:59;99763.03;;;17.88;55.94
63739;BME280;68816;45.558;10.070;2023-05-01T02:14:27;99763.03;;;17.88;56.40
63739;BME280;68816;45.558;10.070;2023-05-01T02:16:54;99764.75;;;17.79;55.08
63739;BME280;68816;45.558;10.070;2023-05-01T02:19:21;99765.81;;;17.83;54.82
63739;BME280;68816;45.558;10.070;2023-05-01T02:21:47;99759.06;;;17.89;55.07
63739;BME280;68816;45.558;10.070;2023-05-01T02:24:14;99765.50;;;17.89;55.47
63739;BME280;68816;45.558;10.070;2023-05-01T02:26:42;99756.78;;;17.96;56.21
63739;BME280;68816;45.558;10.070;2023-05-01T02:29:09;99763.03;;;17.88;54.76
63739;BME280;68816;45.558;10.070;2023-05-01T02:31:35;99760.78;;;17.85;54.34
63739;BME280;68816;45.558;10.070;2023-05-01T02:34:01;99764.50;;;17.75;55.33
63739;BME280;68816;45.558;10.070;2023-05-01T02:36:26;99761.41;;;17.77;55.31
63739;BME280;68816;45.558;10.070;2023-05-01T02:38:53;99769.00;;;17.71;54.43
63739;BME280;68816;45.558;10.070;2023-05-01T02:41:21;99768.63;;;17.83;53.89
63739;BME280;68816;45.558;10.070;2023-05-01T02:43:52;99773.09;;;17.84;53.87
63739;BME280;68816;45.558;10.070;2023-05-01T02:46:23;99767.03;;;17.72;53.59
63739;BME280;68816;45.558;10.070;2023-05-01T02:48:50;99769.31;;;17.70;53.86
63739;BME280;68816;45.558;10.070;2023-05-01T02:51:16;99770.75;;;17.62;54.56
63739;BME280;68816;45.558;10.070;2023-05-01T02:53:42;99762.03;;;17.69;54.06
63739;BME280;68816;45.558;10.070;2023-05-01T02:56:08;99762.63;;;17.60;53.70
63739;BME280;68816;45.558;10.070;2023-05-01T02:58:34;99767.94;;;17.62;54.20
63739;BME280;68816;45.558;10.070;2023-05-01T03:00:59;99780.81;;;17.63;54.41
63739;BME280;68816;45.558;10.070;2023-05-01T03:03:25;99769.91;;;17.61;54.22
63739;BME280;68816;45.558;10.070;2023-05-01T03:05:52;99771.03;;;17.60;54.32
63739;BME280;68816;45.558;10.070;2023-05-01T03:08:24;99774.38;;;17.57;53.70
63739;BME280;68816;45.558;10.070;2023-05-01T03:10:53;99772.09;;;17.59;53.92
63739;BME280;68816;45.558;10.070;2023-05-01T03:13:18;99759.84;;;17.55;54.13
63739;BME280;68816;45.558;10.070;2023-05-01T03:16:14;99754.84;;;17.52;54.22
63739;BME280;68816;45.558;10.070;2023-05-01T03:18:44;99772.13;;;17.64;53.78
63739;BME280;68816;45.558;10.070;2023-05-01T03:21:13;99775.22;;;17.63;53.11
63739;BME280;68816;45.558;10.070;2023-05-01T03:23:48;99773.50;;;17.67;52.86
63739;BME280;68816;45.558;10.070;2023-05-01T03:26:29;99774.38;;;17.62;52.32
63739;BME280;68816;45.558;10.070;2023-05-01T03:28:55;99771.53;;;17.68;52.15
63739;BME280;68816;45.558;10.070;2023-05-01T03:31:20;99777.41;;;17.66;51.82
63739;BME280;68816;45.558;10.070;2023-05-01T03:34:10;99773.75;;;17.71;51.93
63739;BME280;68816;45.558;10.070;2023-05-01T03:36:36;99769.00;;;17.71;52.18
63739;BME280;68816;45.558;10.070;2023-05-01T03:39:02;99768.16;;;17.71;52.05
63739;BME280;68816;45.558;10.070;2023-05-01T03:41:36;99758.97;;;17.65;51.71
63739;BME280;68816;45.558;10.070;2023-05-01T03:44:02;99769.53;;;17.73;51.90
63739;BME280;68816;45.558;10.070;2023-05-01T03:46:30;99775.41;;;17.72;51.31
63739;BME280;68816;45.558;10.070;2023-05-01T03:48:55;99767.06;;;17.67;50.81
63739;BME280;68816;45.558;10.070;2023-05-01T03:51:24;99764.53;;;17.70;51.10
63739;BME280;68816;45.558;10.070;2023-05-01T03:53:52;99772.66;;;17.67;50.05
63739;BME280;68816;45.558;10.070;2023-05-01T03:56:20;99776.00;;;17.69;49.12
63739;BME280;68816;45.558;10.070;2023-05-01T03:58:46;99769.59;;;17.68;48.85
63739;BME280;68816;45.558;10.070;2023-05-01T04:01:12;99769.00;;;17.71;48.78
63739;BME280;68816;45.558;10.070;2023-05-01T04:03:37;99773.75;;;17.71;48.79
63739;BME280;68816;45.558;10.070;2023-05-01T04:06:03;99772.09;;;17.70;48.47
63739;BME280;68816;45.558;10.070;2023-05-01T04:08:28;99770.41;;;17.69;47.83
63739;BME280;68816;45.558;10.070;2023-05-01T04:10:54;99769.88;;;17.67;48.00
63739;BME280;68816;45.558;10.070;2023-05-01T04:13:19;99770.97;;;17.65;47.26
63739;BME280;68816;45.558;10.070;2023-05-01T04:15:45;99776.56;;;17.65;47.12
63739;BME280;68816;45.558;10.070;2023-05-01T04:18:13;99776.00;;;17.69;46.90
63739;BME280;68816;45.558;10.070;2023-05-01T04:20:38;99772.09;;;17.70;46.92
63739;BME280;68816;45.558;10.070;2023-05-01T04:23:04;99779.06;;;17.72;46.81
63739;BME280;68816;45.558;10.070;2023-05-01T04:25:30;99784.13;;;17.70;46.86
63739;BME280;68816;45.558;10.070;2023-05-01T04:27:56;99775.19;;;17.68;46.77
63739;BME280;68816;45.558;10.070;2023-05-01T04:30:21;99772.66;;;17.67;45.80
63739;BME280;68816;45.558;10.070;2023-05-01T04:32:47;99777.69;;;17.70;46.02
63739;BME280;68816;45.558;10.070;2023-05-01T04:35:12;99772.41;;;17.63;45.22
63739;BME280;68816;45.558;10.070;2023-05-01T04:37:38;99770.41;;;17.69;45.11
63739;BME280;68816;45.558;10.070;2023-05-01T04:40:03;99778.25;;;17.67;45.78
63739;BME280;68816;45.558;10.070;2023-05-01T04:42:30;99775.47;;;17.67;45.20
63739;BME280;68816;45.558;10.070;2023-05-01T04:44:56;99776.84;;;17.69;45.75
63739;BME280;68816;45.558;10.070;2023-05-01T04:47:21;99771.78;;;17.71;45.50
63739;BME280;68816;45.558;10.070;2023-05-01T04:49:47;99775.41;;;17.72;44.70
63739;BME280;68816;45.558;10.070;2023-05-01T04:52:12;99781.53;;;17.79;45.24
63739;BME280;68816;45.558;10.070;2023-05-01T04:54:38;99780.13;;;17.81;44.56
63739;BME280;68816;45.558;10.070;2023-05-01T04:57:03;99778.13;;;17.87;44.46
63739;BME280;68816;45.558;10.070;2023-05-01T04:59:29;99766.44;;;17.80;44.24
63739;BME280;68816;45.558;10.070;2023-05-01T05:01:54;99774.72;;;17.90;44.29
63739;BME280;68816;45.558;10.070;2023-05-01T05:04:20;99778.63;;;17.94;44.41
63739;BME280;68816;45.558;10.070;2023-05-01T05:06:45;99780.56;;;17.98;43.69
63739;BME280;68816;45.558;10.070;2023-05-01T05:09:10;99779.44;;;17.94;43.60
63739;BME280;68816;45.558;10.070;2023-05-01T05:11:36;99783.88;;;18.00;43.00
63739;BME280;68816;45.558;10.070;2023-05-01T05:14:01;99778.84;;;18.02;43.61
63739;BME280;68816;45.558;10.070;2023-05-01T05:16:28;99789.72;;;18.09;42.96
63739;BME280;68816;45.558;10.070;2023-05-01T05:18:56;99790.84;;;18.08;42.41
63739;BME280;68816;45.558;10.070;2023-05-01T05:21:22;99785.50;;;18.06;42.41
63739;BME280;68816;45.558;10.070;2023-05-01T05:23:47;99794.75;;;18.07;41.90
63739;BME280;68816;45.558;10.070;2023-05-01T05:26:13;99786.31;;;18.12;42.61
63739;BME280;68816;45.558;10.070;2023-05-01T05:28:38;99792.47;;;18.14;43.13
63739;BME280;68816;45.558;10.070;2023-05-01T05:31:05;99781.56;;;18.13;42.58
63739;BME280;68816;45.558;10.070;2023-05-01T05:33:30;99794.09;;;18.20;42.14
63739;BME280;68816;45.558;10.070;2023-05-01T05:35:57;99796.06;;;18.20;41.94
63739;BME280;68816;45.558;10.070;2023-05-01T05:38:23;99805.53;;;18.24;42.10
63739;BME280;68816;45.558;10.070;2023-05-01T05:40:48;99799.94;;;18.24;41.29
63739;BME280;68816;45.558;10.070;2023-05-01T05:43:13;99788.94;;;18.32;41.26
63739;BME280;68816;45.558;10.070;2023-05-01T05:45:39;99788.13;;;18.32;40.95
63739;BME280;68816;45.558;10.070;2023-05-01T05:48:05;99798.44;;;18.36;40.21
63739;BME280;68816;45.558;10.070;2023-05-01T05:50:30;99797.09;;;18.29;40.59
63739;BME280;68816;45.558;10.070;2023-05-01T05:52:55;99796.50;;;18.32;40.44
63739;BME280;68816;45.558;10.070;2023-05-01T05:55:21;99800.34;;;18.41;39.78
63739;BME280;68816;45.558;10.070;2023-05-01T05:57:47;99797.75;;;18.50;40.34
63739;BME280;68816;45.558;10.070;2023-05-01T06:00:12;99797.16;;;18.53;41.10
63739;BME280;68816;45.558;10.070;2023-05-01T06:02:38;99803.03;;;18.56;40.64
63739;BME280;68816;45.558;10.070;2023-05-01T06:05:04;99807.53;;;18.57;40.71
63739;BME280;68816;45.558;10.070;2023-05-01T06:07:30;99811.69;;;18.60;41.32
63739;BME280;68816;45.558;10.070;2023-05-01T06:09:55;99807.47;;;18.62;40.04
63739;BME280;68816;45.558;10.070;2023-05-01T06:12:26;99806.63;;;18.62;40.90
63739;BME280;68816;45.558;10.070;2023-05-01T06:14:53;99789.78;;;18.67;41.49
63739;BME280;68816;45.558;10.070;2023-05-01T06:17:19;99798.66;;;18.74;40.98
63739;BME280;68816;45.558;10.070;2023-05-01T06:19:45;99786.56;;;18.78;41.69
63739;BME280;68816;45.558;10.070;2023-05-01T06:22:10;99799.72;;;18.78;40.85
63739;BME280;68816;45.558;10.070;2023-05-01T06:24:36;99791.88;;;18.80;40.66
63739;BME280;68816;45.558;10.070;2023-05-01T06:27:04;99791.88;;;18.80;40.32
63739;BME280;68816;45.558;10.070;2023-05-01T06:29:29;99800.81;;;18.82;38.88
63739;BME280;68816;45.558;10.070;2023-05-01T06:31:55;99795.47;;;18.85;40.05
63739;BME280;68816;45.558;10.070;2023-05-01T06:34:20;99803.53;;;18.92;40.08
63739;BME280;68816;45.558;10.070;2023-05-01T06:36:46;99812.16;;;18.96;39.98
63739;BME280;68816;45.558;10.070;2023-05-01T06:39:11;99809.34;;;18.96;39.54
63739;BME280;68816;45.558;10.070;2023-05-01T06:41:37;99810.41;;;19.00;39.14
63739;BME280;68816;45.558;10.070;2023-05-01T06:44:03;99819.91;;;19.04;39.06
63739;BME280;68816;45.558;10.070;2023-05-01T06:46:29;99819.59;;;19.05;39.79
63739;BME280;68816;45.558;10.070;2023-05-01T06:48:54;99814.19;;;19.14;40.66
63739;BME280;68816;45.558;10.070;2023-05-01T06:51:20;99827.09;;;19.15;40.61
63739;BME280;68816;45.558;10.070;2023-05-01T06:53:46;99812.22;;;19.14;39.79
63739;BME280;68816;45.558;10.070;2023-05-01T06:56:11;99818.81;;;19.23;39.78
63739;BME280;68816;45.558;10.070;2023-05-01T06:58:36;99823.78;;;19.32;40.05
63739;BME280;68816;45.558;10.070;2023-05-01T07:01:02;99818.13;;;19.37;39.27
63739;BME280;68816;45.558;10.070;2023-05-01T07:03:28;99815.25;;;19.42;39.50
63739;BME280;68816;45.558;10.070;2023-05-01T07:05:53;99821.34;;;19.49;39.35
63739;BME280;68816;45.558;10.070;2023-05-01T07:08:19;99820.75;;;19.52;38.59
63739;BME280;68816;45.558;10.070;2023-05-01T07:10:45;99827.44;;;19.56;38.41
63739;BME280;68816;45.558;10.070;2023-05-01T07:13:11;99827.66;;;19.59;38.67
63739;BME280;68816;45.558;10.070;2023-05-01T07:15:37;99825.41;;;19.61;38.27
63739;BME280;68816;45.558;10.070;2023-05-01T07:18:03;99821.59;;;19.71;38.10
63739;BME280;68816;45.558;10.070;2023-05-01T07:20:31;99822.16;;;19.73;37.36
63739;BME280;68816;45.558;10.070;2023-05-01T07:22:56;99821.06;;;19.69;38.24
63739;BME280;68816;45.558;10.070;2023-05-01T07:25:22;99825.91;;;19.63;37.11
63739;BME280;68816;45.558;10.070;2023-05-01T07:27:47;99823.69;;;19.84;38.32
63739;BME280;68816;45.558;10.070;2023-05-01T07:30:13;99822.13;;;19.92;37.99
63739;BME280;68816;45.558;10.070;2023-05-01T07:32:39;99823.59;;;19.89;37.14
63739;BME280;68816;45.558;10.070;2023-05-01T07:35:05;99821.34;;;19.91;37.79
63739;BME280;68816;45.558;10.070;2023-05-01T07:37:31;99822.38;;;19.95;38.64
63739;BME280;68816;45.558;10.070;2023-05-01T07:39:56;99826.88;;;19.96;37.61
63739;BME280;68816;45.558;10.070;2023-05-01T07:42:22;99815.19;;;19.89;37.43
63739;BME280;68816;45.558;10.070;2023-05-01T07:44:49;99826.31;;;19.94;37.56
63739;BME280;68816;45.558;10.070;2023-05-01T07:47:15;99824.81;;;20.02;38.68
63739;BME280;68816;45.558;10.070;2023-05-01T07:49:41;99825.78;;;20.11;37.71
63739;BME280;68816;45.558;10.070;2023-05-01T07:52:06;99831.47;;;20.06;37.73
63739;BME280;68816;45.558;10.070;2023-05-01T07:54:32;99833.53;;;20.00;38.32
63739;BME280;68816;45.558;10.070;2023-05-01T07:56:58;99839.38;;;20.04;37.18
63739;BME280;68816;45.558;10.070;2023-05-01T07:59:23;99834.44;;;20.15;37.85
63739;BME280;68816;45.558;10.070;2023-05-01T08:01:49;99835.50;;;20.19;37.08
63739;BME280;68816;45.558;10.070;2023-05-01T08:04:15;99839.34;;;20.23;38.83
63739;BME280;68816;45.558;10.070;2023-05-01T08:07:20;99831.66;;;20.15;38.95
63739;BME280;68816;45.558;10.070;2023-05-01T08:09:50;99835.50;;;20.19;38.56
63739;BME280;68816;45.558;10.070;2023-05-01T08:12:16;99846.28;;;20.12;38.20
63739;BME280;68816;45.558;10.070;2023-05-01T08:14:41;99838.06;;;20.15;38.44
63739;BME280;68816;45.558;10.070;2023-05-01T08:17:06;99844.00;;;20.14;37.82
63739;BME280;68816;45.558;10.070;2023-05-01T08:19:32;99839.97;;;20.20;40.21
63739;BME280;68816;45.558;10.070;2023-05-01T08:21:58;99839.06;;;20.05;38.52
63739;BME280;68816;45.558;10.070;2023-05-01T08:24:26;99838.97;;;20.10;40.18
63739;BME280;68816;45.558;10.070;2023-05-01T08:26:52;99845.69;;;20.15;40.80
63739;BME280;68816;45.558;10.070;2023-05-01T08:29:20;99845.28;;;20.21;41.77
63739;BME280;68816;45.558;10.070;2023-05-01T08:31:46;99832.91;;;20.22;41.71
63739;BME280;68816;45.558;10.070;2023-05-01T08:34:13;99812.13;;;20.04;42.58
63739;BME280;68816;45.558;10.070;2023-05-01T08:36:39;99845.38;;;20.35;38.60
63739;BME280;68816;45.558;10.070;2023-05-01T08:39:04;99843.47;;;20.30;39.64
63739;BME280;68816;45.558;10.070;2023-05-01T08:41:31;99847.59;;;20.38;39.70
63739;BME280;68816;45.558;10.070;2023-05-01T08:43:59;99856.63;;;20.35;38.64
63739;BME280;68816;45.558;10.070;2023-05-01T08:46:37;99850.22;;;20.29;38.79
63739;BME280;68816;45.558;10.070;2023-05-01T08:49:09;99841.13;;;20.37;40.40
63739;BME280;68816;45.558;10.070;2023-05-01T08:51:38;99801.44;;;20.06;40.44
63739;BME280;68816;45.558;10.070;2023-05-01T08:54:06;99838.22;;;20.24;38.96
63739;BME280;68816;45.558;10.070;2023-05-01T08:56:35;99851.00;;;20.35;38.84
63739;BME280;68816;45.558;10.070;2023-05-01T08:59:03;99857.78;;;20.29;38.90
63739;BME280;68816;45.558;10.070;2023-05-01T09:01:29;99842.03;;;20.14;38.05
63739;BME280;68816;45.558;10.070;2023-05-01T09:03:57;99846.94;;;20.22;38.63
63739;BME280;68816;45.558;10.070;2023-05-01T09:06:27;99851.72;;;20.22;39.09
63739;BME280;68816;45.558;10.070;2023-05-01T09:08:53;99845.22;;;20.26;40.30
63739;BME280;68816;45.558;10.070;2023-05-01T09:11:21;99851.97;;;20.25;39.43
63739;BME280;68816;45.558;10.070;2023-05-01T09:13:46;99853.94;;;20.25;38.40
63739;BME280;68816;45.558;10.070;2023-05-01T09:16:12;99858.72;;;20.24;38.82
63739;BME280;68816;45.558;10.070;2023-05-01T09:18:38;99851.63;;;20.27;38.81
63739;BME280;68816;45.558;10.070;2023-05-01T09:21:05;99846.28;;;20.30;38.99
63739;BME280;68816;45.558;10.070;2023-05-01T09:23:31;99852.03;;;20.39;39.02
63739;BME280;68816;45.558;10.070;2023-05-01T09:25:58;99854.63;;;20.54;39.18
63739;BME280;68816;45.558;10.070;2023-05-01T09:28:43;99850.13;;;20.53;39.71
63739;BME280;68816;45.558;10.070;2023-05-01T09:31:28;99863.22;;;20.44;38.83
63739;BME280;68816;45.558;10.070;2023-05-01T09:33:59;99863.88;;;20.55;40.00
63739;BME280;68816;45.558;10.070;2023-05-01T09:36:29;99864.28;;;20.48;40.09
63739;BME280;68816;45.558;10.070;2023-05-01T09:38:59;99860.31;;;20.49;38.92
63739;BME280;68816;45.558;10.070;2023-05-01T09:41:26;99867.19;;;20.57;39.41
63739;BME280;68816;45.558;10.070;2023-05-01T09:43:52;99864.19;;;20.53;37.90
63739;BME280;68816;45.558;10.070;2023-05-01T09:46:19;99867.06;;;20.48;39.51
63739;BME280;68816;45.558;10.070;2023-05-01T09:48:57;99856.44;;;20.45;41.07
63739;BME280;68816;45.558;10.070;2023-05-01T09:51:28;99865.75;;;20.59;40.79
63739;BME280;68816;45.558;10.070;2023-05-01T09:53:56;99865.06;;;20.67;42.25
63739;BME280;68816;45.558;10.070;2023-05-01T09:56:22;99852.66;;;20.68;40.93
63739;BME280;68816;45.558;10.070;2023-05-01T09:58:52;99855.09;;;20.75;41.90
63739;BME280;68816;45.558;10.070;2023-05-01T10:01:18;99860.00;;;20.83;42.31
63739;BME280;68816;45.558;10.070;2023-05-01T10:03:44;99855.72;;;20.85;42.70
63739;BME280;68816;45.558;10.070;2023-05-01T10:06:10;99855.03;;;20.94;42.60
63739;BME280;68816;45.558;10.070;2023-05-01T10:08:49;99858.16;;;20.92;42.97
63739;BME280;68816;45.558;10.070;2023-05-01T10:11:14;99854.59;;;21.19;41.05
63739;BME280;68816;45.558;10.070;2023-05-01T10:13:40;99851.06;;;21.41;40.52
63739;BME280;68816;45.558;10.070;2023-05-01T10:16:07;99849.38;;;21.53;39.75
63739;BME280;68816;45.558;10.070;2023-05-01T10:18:54;99844.59;;;21.54;39.57
63739;BME280;68816;45.558;10.070;2023-05-01T10:21:21;99849.16;;;21.77;40.10
63739;BME280;68816;45.558;10.070;2023-05-01T10:23:47;99841.19;;;21.93;39.46
63739;BME280;68816;45.558;10.070;2023-05-01T10:26:26;99833.38;;;22.03;38.41
63739;BME280;68816;45.558;10.070;2023-05-01T10:28:52;99842.50;;;22.23;37.53
63739;BME280;68816;45.558;10.070;2023-05-01T10:31:17;99839.81;;;22.40;37.75
63739;BME280;68816;45.558;10.070;2023-05-01T10:33:44;99816.06;;;22.32;36.68
63739;BME280;68816;45.558;10.070;2023-05-01T10:36:37;99831.25;;;22.45;36.00
63739;BME280;68816;45.558;10.070;2023-05-01T10:39:04;99832.91;;;22.46;35.88
63739;BME280;68816;45.558;10.070;2023-05-01T10:44:25;99831.38;;;22.40;36.53
63739;BME280;68816;45.558;10.070;2023-05-01T10:46:51;99816.06;;;22.32;37.20
63739;BME280;68816;45.558;10.070;2023-05-01T10:50:04;99828.41;;;22.23;37.41
63739;BME280;68816;45.558;10.070;2023-05-01T10:55:43;99819.59;;;22.02;35.37
63739;BME280;68816;45.558;10.070;2023-05-01T10:58:10;99822.63;;;21.92;35.20
63739;BME280;68816;45.558;10.070;2023-05-01T11:01:10;99819.31;;;21.90;34.96
63739;BME280;68816;45.558;10.070;2023-05-01T11:03:40;99825.16;;;21.80;34.76
63739;BME280;68816;45.558;10.070;2023-05-01T11:06:06;99822.03;;;21.81;36.42
63739;BME280;68816;45.558;10.070;2023-05-01T11:08:36;99809.03;;;21.71;34.61
63739;BME280;68816;45.558;10.070;2023-05-01T11:25:19;99796.34;;;21.96;35.89
63739;BME280;68816;45.558;10.070;2023-05-01T11:27:50;99793.75;;;22.00;34.34
63739;BME280;68816;45.558;10.070;2023-05-01T11:30:16;99781.22;;;22.06;33.89
63739;BME280;68816;45.558;10.070;2023-05-01T11:32:43;99782.31;;;22.19;35.83
63739;BME280;68816;45.558;10.070;2023-05-01T11:35:24;99780.19;;;22.02;34.48
63739;BME280;68816;45.558;10.070;2023-05-01T11:37:52;99779.09;;;21.76;34.45
63739;BME280;68816;45.558;10.070;2023-05-01T11:40:31;99773.41;;;22.03;34.29
63739;BME280;68816;45.558;10.070;2023-05-01T11:43:07;99774.94;;;22.31;34.73
63739;BME280;68816;45.558;10.070;2023-05-01T11:45:34;99766.56;;;22.40;33.26
63739;BME280;68816;45.558;10.070;2023-05-01T11:48:01;99767.38;;;21.96;33.67
63739;BME280;68816;45.558;10.070;2023-05-01T11:50:40;99766.56;;;22.18;34.30
63739;BME280;68816;45.558;10.070;2023-05-01T11:53:13;99765.59;;;22.22;35.90
63739;BME280;68816;45.558;10.070;2023-05-01T11:55:45;99766.47;;;22.31;33.78
63739;BME280;68816;45.558;10.070;2023-05-01T11:58:11;99758.03;;;22.31;36.00
63739;BME280;68816;45.558;10.070;2023-05-01T12:00:39;99757.53;;;22.29;34.45
63739;BME280;68816;45.558;10.070;2023-05-01T12:05:34;99758.69;;;22.28;34.40
63739;BME280;68816;45.558;10.070;2023-05-01T12:10:38;99760.75;;;22.36;34.56
63739;BME280;68816;45.558;10.070;2023-05-01T12:13:05;99755.22;;;22.31;34.42
63739;BME280;68816;45.558;10.070;2023-05-01T12:15:36;99756.75;;;22.37;34.39
63739;BME280;68816;45.558;10.070;2023-05-01T12:18:03;99748.50;;;22.41;35.08
63739;BME280;68816;45.558;10.070;2023-05-01T12:20:35;99747.00;;;22.43;34.64
63739;BME280;68816;45.558;10.070;2023-05-01T12:23:03;99744.41;;;22.47;33.98
63739;BME280;68816;45.558;10.070;2023-05-01T12:25:30;99754.69;;;22.74;35.73
63739;BME280;68816;45.558;10.070;2023-05-01T12:27:57;99757.22;;;22.84;33.93
63739;BME280;68816;45.558;10.070;2023-05-01T12:30:25;99765.50;;;22.80;32.60
63739;BME280;68816;45.558;10.070;2023-05-01T12:32:57;99766.25;;;22.41;33.13
63739;BME280;68816;45.558;10.070;2023-05-01T12:35:28;99765.22;;;22.60;32.99
63739;BME280;68816;45.558;10.070;2023-05-01T12:37:54;99756.22;;;22.58;32.84
63739;BME280;68816;45.558;10.070;2023-05-01T12:40:20;99756.59;;;22.65;33.73
63739;BME280;68816;45.558;10.070;2023-05-01T12:42:54;99755.06;;;22.81;32.92
63739;BME280;68816;45.558;10.070;2023-05-01T12:45:20;99763.88;;;22.66;32.16
63739;BME280;68816;45.558;10.070;2023-05-01T12:47:46;99751.66;;;22.70;33.37
63739;BME280;68816;45.558;10.070;2023-05-01T12:50:12;99758.94;;;22.93;34.28
63739;BME280;68816;45.558;10.070;2023-05-01T12:52:37;99746.81;;;22.93;33.63
63739;BME280;68816;45.558;10.070;2023-05-01T12:55:04;99742.84;;;22.94;32.67
63739;BME280;68816;45.558;10.070;2023-05-01T12:57:30;99745.38;;;22.73;32.45
63739;BME280;68816;45.558;10.070;2023-05-01T13:00:01;99751.66;;;22.70;33.37
63739;BME280;68816;45.558;10.070;2023-05-01T13:02:31;99752.50;;;22.48;33.61
63739;BME280;68816;45.558;10.070;2023-05-01T13:05:07;99748.28;;;22.60;34.70
63739;BME280;68816;45.558;10.070;2023-05-01T13:07:34;99741.81;;;22.59;33.47
63739;BME280;68816;45.558;10.070;2023-05-01T13:10:00;99751.28;;;22.63;33.67
63739;BME280;68816;45.558;10.070;2023-05-01T13:12:28;99750.22;;;22.50;33.42
63739;BME280;68816;45.558;10.070;2023-05-01T13:14:54;99745.41;;;22.51;32.33
63739;BME280;68816;45.558;10.070;2023-05-01T13:17:30;99741.59;;;22.47;33.49
63739;BME280;68816;45.558;10.070;2023-05-01T13:19:58;99738.22;;;22.36;32.95
63739;BME280;68816;45.558;10.070;2023-05-01T13:22:30;99729.50;;;22.24;33.08
63739;BME280;68816;45.558;10.070;2023-05-01T13:24:56;99735.31;;;22.28;34.54
63739;BME280;68816;45.558;10.070;2023-05-01T13:27:22;99727.84;;;22.23;35.06
63739;BME280;68816;45.558;10.070;2023-05-01T13:29:58;99718.81;;;22.13;34.71